Time;durP1;ratioP1;P1;durP2;ratioP2;P2;SDS_P1;SDS_P2;PMS_P1;PMS_P2;Temp;Humidity;BMP_temperature;BMP_pressure;BME280_temperature;BME280_humidity;BME280_pressure;Samples;Min_cycle;Max_cycle;Signal;HPM_P1;HPM_P2
2023/12/31 00:00:52;;;;;;;110.18;43.20;;;1.30;99.90;;;;;;5029130;28;20041;-77
2023/12/31 00:03:20;;;;;;;121.95;43.60;;;1.00;99.90;;;;;;5013442;28;20049;-76
2023/12/31 00:05:49;;;;;;;119.47;43.33;;;1.00;99.90;;;;;;5015632;28;20055;-77
2023/12/31 00:08:18;;;;;;;116.18;41.67;;;1.30;99.90;;;;;;5021916;28;21947;-76
2023/12/31 00:10:47;;;;;;;118.57;41.85;;;1.10;99.90;;;;;;5009621;28;21343;-77
2023/12/31 00:13:17;;;;;;;108.32;41.22;;;1.10;99.90;;;;;;4987993;28;20061;-77
2023/12/31 00:15:46;;;;;;;126.00;42.42;;;0.10;99.90;;;;;;5006375;28;20061;-77
2023/12/31 00:18:16;;;;;;;105.30;40.97;;;1.10;99.90;;;;;;5021682;28;20134;-77
2023/12/31 00:20:46;;;;;;;114.53;41.63;;;1.70;99.90;;;;;;5013990;28;20049;-77
2023/12/31 00:23:15;;;;;;;110.90;41.38;;;1.00;99.90;;;;;;5007120;28;20822;-77
2023/12/31 00:25:44;;;;;;;98.80;36.95;;;1.30;99.90;;;;;;5018368;28;20053;-77
2023/12/31 00:28:12;;;;;;;112.28;40.33;;;1.30;99.90;;;;;;5020459;28;20080;-77
2023/12/31 00:30:44;;;;;;;117.03;40.97;;;1.00;99.90;;;;;;5011998;28;20062;-77
2023/12/31 00:33:12;;;;;;;130.95;47.15;;;1.40;99.90;;;;;;5004804;28;20061;-79
2023/12/31 00:35:43;;;;;;;114.80;44.35;;;1.00;99.90;;;;;;5013881;28;20072;-78
2023/12/31 00:38:11;;;;;;;107.90;39.15;;;1.00;99.90;;;;;;5004814;28;20054;-77
2023/12/31 00:40:40;;;;;;;105.72;38.40;;;1.00;99.90;;;;;;5023907;28;20155;-77
2023/12/31 00:43:10;;;;;;;93.32;36.08;;;1.00;99.90;;;;;;5005060;28;20057;-77
2023/12/31 00:45:38;;;;;;;93.45;36.17;;;1.30;99.90;;;;;;5006516;28;21950;-77
2023/12/31 00:48:08;;;;;;;95.30;34.50;;;1.00;99.90;;;;;;5005680;28;22855;-77
2023/12/31 00:50:37;;;;;;;93.50;35.72;;;1.00;99.90;;;;;;5019260;28;20098;-77
2023/12/31 00:53:07;;;;;;;86.72;33.92;;;1.00;99.90;;;;;;5014893;28;20112;-77
2023/12/31 00:55:38;;;;;;;91.28;33.05;;;0.90;99.90;;;;;;5038596;28;20056;-77
2023/12/31 00:58:07;;;;;;;93.40;36.22;;;0.50;99.90;;;;;;5009285;28;20147;-77
2023/12/31 01:00:36;;;;;;;100.07;35.58;;;1.00;99.90;;;;;;5009926;28;20076;-77
2023/12/31 01:03:05;;;;;;;108.05;40.63;;;0.90;99.90;;;;;;5018577;28;20037;-77
2023/12/31 01:05:34;;;;;;;115.43;42.63;;;0.90;99.90;;;;;;5009555;28;20064;-77
2023/12/31 01:08:04;;;;;;;118.70;44.97;;;-0.20;99.90;;;;;;5026569;28;20055;-77
2023/12/31 01:10:34;;;;;;;115.80;45.13;;;0.90;99.90;;;;;;5024659;28;20052;-77
2023/12/31 01:13:03;;;;;;;110.55;41.80;;;1.00;99.90;;;;;;5024799;28;20049;-77
2023/12/31 01:15:32;;;;;;;100.78;41.10;;;0.90;99.90;;;;;;5010062;28;20051;-77
2023/12/31 01:18:01;;;;;;;93.72;35.97;;;1.00;99.90;;;;;;5019517;28;20037;-77
2023/12/31 01:20:30;;;;;;;89.55;35.92;;;0.20;99.90;;;;;;5030471;28;20052;-77
2023/12/31 01:22:59;;;;;;;88.50;34.97;;;1.00;99.90;;;;;;5006135;28;20045;-77
2023/12/31 01:25:28;;;;;;;83.20;34.75;;;2.00;99.90;;;;;;5023923;28;20050;-77
2023/12/31 01:27:59;;;;;;;86.82;34.55;;;1.00;99.90;;;;;;5025654;28;20052;-77
2023/12/31 01:30:27;;;;;;;87.47;33.80;;;1.00;99.90;;;;;;5008561;28;20116;-78
2023/12/31 01:32:56;;;;;;;89.80;34.55;;;0.90;99.90;;;;;;5012818;28;20048;-77
2023/12/31 01:35:25;;;;;;;84.78;34.03;;;0.20;99.90;;;;;;5006685;28;20053;-77
2023/12/31 01:37:54;;;;;;;82.70;34.00;;;0.90;99.90;;;;;;5027055;28;20218;-77
2023/12/31 01:40:24;;;;;;;86.97;34.22;;;1.10;99.90;;;;;;5036906;28;20107;-77
2023/12/31 01:42:54;;;;;;;84.60;34.00;;;1.10;99.90;;;;;;5036179;28;20049;-77
2023/12/31 01:45:25;;;;;;;93.50;33.97;;;1.10;99.90;;;;;;5006310;28;20052;-78
2023/12/31 01:47:55;;;;;;;91.88;37.55;;;1.80;99.90;;;;;;5007966;28;20041;-77
2023/12/31 01:50:24;;;;;;;99.10;38.67;;;1.10;99.90;;;;;;5007330;28;20088;-77
2023/12/31 01:52:53;;;;;;;90.22;35.75;;;1.20;99.90;;;;;;5007710;28;20084;-78
2023/12/31 01:55:23;;;;;;;86.43;35.13;;;1.10;99.90;;;;;;5028299;28;20049;-78
2023/12/31 01:57:51;;;;;;;90.13;36.53;;;1.10;99.90;;;;;;5008256;28;22212;-77
2023/12/31 02:00:20;;;;;;;88.32;33.97;;;1.10;99.90;;;;;;5015352;28;20069;-77
2023/12/31 02:02:54;;;;;;;89.95;35.72;;;-0.10;99.90;;;;;;5008107;28;20049;-77
2023/12/31 02:05:22;;;;;;;97.57;37.90;;;1.10;99.90;;;;;;5016451;28;20057;-77
2023/12/31 02:07:51;;;;;;;94.75;38.33;;;-0.10;99.90;;;;;;5011365;28;20042;-77
2023/12/31 02:10:19;;;;;;;79.82;33.55;;;1.10;99.90;;;;;;5009532;28;20064;-77
2023/12/31 02:12:49;;;;;;;89.15;34.38;;;1.00;99.90;;;;;;5007888;28;20056;-77
2023/12/31 02:15:30;;;;;;;89.07;35.50;;;1.00;99.90;;;;;;5003174;28;20053;-77
2023/12/31 02:18:02;;;;;;;98.70;35.95;;;1.40;99.90;;;;;;5034726;28;20061;-77
2023/12/31 02:20:32;;;;;;;85.15;34.40;;;1.10;99.90;;;;;;5020158;28;20059;-77
2023/12/31 02:23:01;;;;;;;81.22;34.30;;;0.30;99.90;;;;;;5017051;28;20063;-77
2023/12/31 02:25:31;;;;;;;76.25;30.92;;;1.00;99.90;;;;;;5016423;28;20181;-77
2023/12/31 02:28:01;;;;;;;79.50;33.65;;;1.00;99.90;;;;;;5012958;28;20060;-77
2023/12/31 02:30:30;;;;;;;87.47;33.65;;;1.00;99.90;;;;;;5007133;28;20091;-77
2023/12/31 02:32:59;;;;;;;86.78;33.30;;;1.00;99.90;;;;;;5011200;28;20208;-77
2023/12/31 02:35:29;;;;;;;88.32;34.22;;;1.10;99.90;;;;;;5007375;28;21761;-78
2023/12/31 02:37:57;;;;;;;79.55;33.63;;;1.00;99.90;;;;;;5011610;28;20050;-77
2023/12/31 02:40:26;;;;;;;80.38;33.30;;;0.90;99.90;;;;;;5008137;28;20761;-77
2023/12/31 02:42:55;;;;;;;75.80;31.00;;;1.00;99.90;;;;;;5009181;28;20095;-78
2023/12/31 02:45:25;;;;;;;79.10;32.42;;;1.00;99.90;;;;;;5025007;28;20112;-77
2023/12/31 02:47:54;;;;;;;74.93;30.10;;;1.00;99.90;;;;;;5016794;28;20057;-77
2023/12/31 02:50:23;;;;;;;77.78;31.48;;;0.90;99.90;;;;;;5014051;28;20056;-77
2023/12/31 02:52:53;;;;;;;77.28;30.80;;;1.80;99.90;;;;;;5023737;28;20096;-78
2023/12/31 02:55:22;;;;;;;77.75;33.03;;;1.00;99.90;;;;;;5007617;28;20057;-77
2023/12/31 02:57:51;;;;;;;80.95;33.35;;;1.00;99.90;;;;;;5015026;28;20048;-77
2023/12/31 03:00:19;;;;;;;83.13;33.00;;;1.00;99.90;;;;;;5013034;28;20124;-77
2023/12/31 03:02:49;;;;;;;92.53;36.35;;;1.00;99.90;;;;;;5005405;28;20053;-77
2023/12/31 03:05:18;;;;;;;83.95;34.20;;;1.00;99.90;;;;;;5018114;28;20053;-77
2023/12/31 03:07:47;;;;;;;85.05;35.10;;;1.20;99.90;;;;;;5014066;28;20786;-77
2023/12/31 03:10:16;;;;;;;88.15;35.17;;;1.10;99.90;;;;;;5019190;28;20049;-77
2023/12/31 03:12:44;;;;;;;91.68;36.30;;;1.10;99.90;;;;;;5006867;28;20061;-77
2023/12/31 03:15:14;;;;;;;85.88;33.65;;;1.10;99.90;;;;;;5013458;28;20046;-77
2023/12/31 03:17:43;;;;;;;84.55;35.53;;;1.80;99.90;;;;;;5025528;28;20520;-77
2023/12/31 03:20:13;;;;;;;76.72;32.85;;;1.30;99.90;;;;;;5002537;28;21910;-77
2023/12/31 03:22:42;;;;;;;86.70;34.80;;;1.10;99.90;;;;;;5023576;28;20053;-77
2023/12/31 03:25:11;;;;;;;82.95;33.30;;;1.10;99.90;;;;;;5013899;28;20124;-76
2023/12/31 03:27:40;;;;;;;77.45;31.88;;;1.10;99.90;;;;;;5023793;28;20041;-77
2023/12/31 03:30:11;;;;;;;77.65;33.53;;;0.90;99.90;;;;;;5005204;28;22489;-78
2023/12/31 03:32:41;;;;;;;78.55;32.05;;;1.20;99.90;;;;;;5020106;28;20087;-78
2023/12/31 03:35:10;;;;;;;79.07;30.85;;;1.10;99.90;;;;;;5014498;28;20073;-78
2023/12/31 03:37:46;;;;;;;75.88;30.10;;;1.20;99.90;;;;;;5019853;28;20053;-78
2023/12/31 03:40:16;;;;;;;78.93;30.52;;;1.00;99.90;;;;;;5016882;28;20057;-78
2023/12/31 03:42:44;;;;;;;76.30;30.75;;;1.20;99.90;;;;;;5017346;28;20104;-78
2023/12/31 03:45:15;;;;;;;80.20;32.13;;;0.60;99.90;;;;;;5013956;28;20179;-78
2023/12/31 03:47:44;;;;;;;84.30;32.78;;;1.10;99.90;;;;;;5021998;28;20060;-77
2023/12/31 03:50:13;;;;;;;76.63;33.33;;;2.10;99.90;;;;;;5020791;28;20053;-77
2023/12/31 03:52:43;;;;;;;85.25;33.88;;;1.10;99.90;;;;;;5009575;28;20114;-78
2023/12/31 03:55:13;;;;;;;80.53;31.88;;;1.10;99.90;;;;;;5010191;28;20049;-78
2023/12/31 03:57:41;;;;;;;76.97;32.28;;;1.10;99.90;;;;;;5010264;28;20052;-78
2023/12/31 04:00:11;;;;;;;78.10;32.10;;;1.10;99.90;;;;;;5023608;28;20049;-77
2023/12/31 04:02:40;;;;;;;78.13;32.45;;;1.10;99.90;;;;;;5012926;28;20080;-78
2023/12/31 04:05:09;;;;;;;69.38;30.45;;;2.10;99.90;;;;;;5009805;28;20092;-77
2023/12/31 04:07:39;;;;;;;76.22;30.42;;;1.00;99.90;;;;;;5021168;28;20138;-77
2023/12/31 04:10:11;;;;;;;72.10;28.77;;;2.30;99.90;;;;;;5014352;28;20057;-77
2023/12/31 04:12:39;;;;;;;72.17;30.83;;;1.10;99.90;;;;;;5008918;28;20056;-77
2023/12/31 04:15:09;;;;;;;69.60;30.75;;;1.00;99.90;;;;;;5017487;28;20053;-77
2023/12/31 04:17:38;;;;;;;85.97;33.42;;;1.10;99.90;;;;;;5010694;28;20061;-78
2023/12/31 04:20:08;;;;;;;76.50;29.60;;;1.40;99.90;;;;;;5010752;28;20056;-78
2023/12/31 04:22:37;;;;;;;71.63;30.95;;;1.00;99.90;;;;;;5025618;28;20064;-78
2023/12/31 04:25:08;;;;;;;74.50;30.10;;;1.10;99.90;;;;;;5017492;28;20061;-77
2023/12/31 04:27:40;;;;;;;72.22;30.40;;;1.00;99.90;;;;;;5021671;28;20262;-77
2023/12/31 04:30:12;;;;;;;72.72;30.17;;;2.10;99.90;;;;;;5006365;28;20643;-77
2023/12/31 04:32:41;;;;;;;70.18;29.23;;;1.00;99.90;;;;;;5029450;28;20083;-78
2023/12/31 04:35:11;;;;;;;81.22;30.45;;;1.40;99.90;;;;;;5028925;28;20065;-78
2023/12/31 04:37:41;;;;;;;75.65;30.98;;;1.10;99.90;;;;;;5011372;28;20060;-78
2023/12/31 04:40:12;;;;;;;81.10;29.73;;;1.00;99.90;;;;;;5020805;28;20052;-77
2023/12/31 04:42:41;;;;;;;76.10;30.55;;;1.20;99.90;;;;;;5010498;28;21900;-78
2023/12/31 04:45:11;;;;;;;73.75;30.73;;;1.00;99.90;;;;;;5026771;28;20053;-78
2023/12/31 04:47:40;;;;;;;71.75;29.70;;;1.70;99.90;;;;;;5028469;28;20073;-77
2023/12/31 04:50:10;;;;;;;73.82;29.55;;;1.00;99.90;;;;;;5011431;28;20048;-78
2023/12/31 04:52:39;;;;;;;70.57;28.42;;;1.00;99.90;;;;;;5027632;28;20051;-78
2023/12/31 04:55:08;;;;;;;75.53;29.45;;;0.60;99.90;;;;;;5027360;28;20049;-78
2023/12/31 04:57:38;;;;;;;73.88;30.50;;;0.90;99.90;;;;;;5027227;28;20065;-77
2023/12/31 05:00:08;;;;;;;75.63;29.42;;;1.00;99.90;;;;;;5027037;28;20052;-78
2023/12/31 05:02:37;;;;;;;68.75;28.90;;;0.90;99.90;;;;;;5009547;28;22330;-78
2023/12/31 05:05:07;;;;;;;69.15;27.33;;;0.90;99.90;;;;;;5020056;28;20629;-76
2023/12/31 05:07:36;;;;;;;66.63;28.20;;;0.90;99.90;;;;;;5008709;28;20059;-77
2023/12/31 05:10:05;;;;;;;75.93;30.55;;;0.90;99.90;;;;;;5027205;28;20045;-78
2023/12/31 05:12:34;;;;;;;80.22;33.08;;;0.80;99.90;;;;;;5027860;28;20059;-78
2023/12/31 05:15:06;;;;;;;88.38;33.47;;;0.80;99.90;;;;;;5014694;28;20189;-77
2023/12/31 05:17:35;;;;;;;74.32;29.73;;;0.80;99.90;;;;;;5027387;28;20049;-77
2023/12/31 05:20:05;;;;;;;92.55;36.08;;;0.90;99.90;;;;;;5028185;28;20044;-78
2023/12/31 05:22:34;;;;;;;97.13;36.25;;;0.80;99.90;;;;;;5007917;28;20061;-78
2023/12/31 05:25:03;;;;;;;93.10;35.78;;;0.90;99.90;;;;;;5011765;28;20052;-78
2023/12/31 05:27:31;;;;;;;91.05;35.78;;;0.80;99.90;;;;;;5010953;28;20064;-78
2023/12/31 05:30:01;;;;;;;113.13;39.78;;;1.40;99.90;;;;;;5037759;28;20046;-78
2023/12/31 05:32:34;;;;;;;117.78;44.65;;;0.70;99.90;;;;;;5010160;28;20045;-78
2023/12/31 05:35:02;;;;;;;120.82;43.05;;;0.70;99.90;;;;;;5026827;28;20049;-78
2023/12/31 05:37:31;;;;;;;104.50;38.53;;;0.90;99.90;;;;;;5026486;28;20052;-78
2023/12/31 05:40:00;;;;;;;103.53;38.78;;;0.00;99.90;;;;;;5024914;28;20033;-78
2023/12/31 05:42:28;;;;;;;104.45;38.42;;;1.90;99.90;;;;;;5024368;28;20056;-78
2023/12/31 05:44:57;;;;;;;101.15;37.63;;;1.20;99.90;;;;;;5029449;28;20057;-78
2023/12/31 05:47:26;;;;;;;97.53;36.38;;;1.30;99.90;;;;;;5011000;28;20103;-78
2023/12/31 05:50:15;;;;;;;89.30;34.25;;;0.70;99.90;;;;;;5031827;28;20042;-78
2023/12/31 05:52:45;;;;;;;97.28;35.20;;;0.90;99.90;;;;;;5009914;28;20059;-78
2023/12/31 05:55:14;;;;;;;83.05;33.40;;;0.70;99.90;;;;;;5038878;28;20080;-77
2023/12/31 05:57:43;;;;;;;89.53;35.28;;;0.80;99.90;;;;;;5012801;28;20057;-78
2023/12/31 06:00:12;;;;;;;88.35;35.78;;;1.70;99.90;;;;;;5027726;28;20064;-77
2023/12/31 06:02:41;;;;;;;91.82;35.25;;;0.70;99.90;;;;;;5011085;28;20041;-78
2023/12/31 06:05:10;;;;;;;91.75;36.35;;;1.20;99.90;;;;;;5028199;28;20046;-78
2023/12/31 06:07:40;;;;;;;102.05;37.10;;;0.70;99.90;;;;;;5013635;28;20046;-78
2023/12/31 06:10:11;;;;;;;93.10;34.80;;;0.70;99.90;;;;;;5012832;28;20050;-77
2023/12/31 06:12:40;;;;;;;100.05;36.60;;;0.80;99.90;;;;;;5031506;28;20135;-78
2023/12/31 06:15:11;;;;;;;98.68;36.10;;;0.80;99.90;;;;;;5012496;28;20164;-78
2023/12/31 06:17:40;;;;;;;96.93;35.90;;;0.80;99.90;;;;;;5012014;28;20059;-77
2023/12/31 06:20:10;;;;;;;108.72;37.47;;;0.70;99.90;;;;;;5030943;28;20049;-78
2023/12/31 06:22:41;;;;;;;98.63;37.42;;;0.80;99.90;;;;;;5010969;28;20048;-77
2023/12/31 06:25:10;;;;;;;112.22;37.22;;;0.80;99.90;;;;;;5029439;28;20059;-78
2023/12/31 06:27:40;;;;;;;97.03;37.38;;;0.70;99.90;;;;;;5033258;28;20084;-78
2023/12/31 06:30:09;;;;;;;100.65;36.00;;;0.80;99.90;;;;;;5022943;28;20063;-77
2023/12/31 06:32:38;;;;;;;98.75;34.10;;;0.80;99.90;;;;;;5025017;28;20049;-78
2023/12/31 06:35:08;;;;;;;114.75;36.50;;;0.80;99.90;;;;;;5012813;28;20061;-78
2023/12/31 06:37:36;;;;;;;89.38;34.95;;;0.80;99.90;;;;;;5013084;28;20049;-78
2023/12/31 06:40:09;;;;;;;94.47;32.85;;;0.90;99.90;;;;;;5031104;28;20068;-78
2023/12/31 06:42:37;;;;;;;60.30;24.00;;;0.80;99.90;;;;;;5054049;28;20067;-78
2023/12/31 06:45:07;;;;;;;79.38;29.67;;;0.80;99.90;;;;;;5025201;28;20079;-78
2023/12/31 06:47:36;;;;;;;79.00;27.40;;;0.80;99.90;;;;;;5022931;28;20047;-78
2023/12/31 06:50:06;;;;;;;75.63;30.23;;;2.00;99.90;;;;;;5015363;28;21044;-78
2023/12/31 06:52:35;;;;;;;81.30;31.27;;;0.80;99.90;;;;;;5018383;28;20056;-78
2023/12/31 06:55:10;;;;;;;89.07;31.67;;;0.90;99.90;;;;;;5019520;28;20053;-78
2023/12/31 06:57:39;;;;;;;113.72;38.33;;;0.90;99.90;;;;;;5018462;28;20057;-78
2023/12/31 07:00:09;;;;;;;117.38;39.47;;;1.30;99.90;;;;;;5021459;28;20053;-78
2023/12/31 07:02:47;;;;;;;111.75;38.00;;;-0.30;99.90;;;;;;5048816;28;20050;-78
2023/12/31 07:05:23;;;;;;;103.32;36.42;;;0.90;99.90;;;;;;5040074;28;20052;-79
2023/12/31 07:07:52;;;;;;;105.22;36.40;;;0.90;99.90;;;;;;5043458;28;20147;-78
2023/12/31 07:10:28;;;;;;;108.35;37.45;;;0.90;99.90;;;;;;5017145;28;20038;-77
2023/12/31 07:13:02;;;;;;;101.53;36.30;;;2.60;99.90;;;;;;4992252;28;20038;-78
2023/12/31 07:15:37;;;;;;;93.95;34.70;;;1.00;99.90;;;;;;5018245;28;20042;-78
2023/12/31 07:18:16;;;;;;;119.28;38.35;;;1.10;99.90;;;;;;4990585;28;20058;-78
2023/12/31 07:20:49;;;;;;;114.00;37.95;;;1.10;99.90;;;;;;5012499;28;20038;-79
2023/12/31 07:23:19;;;;;;;;;;;1.10;99.90;;;;;;5007454;28;20077;-78
2023/12/31 07:25:56;;;;;;;94.18;33.17;;;1.10;99.90;;;;;;4988631;28;20002;-77
2023/12/31 07:28:35;;;;;;;104.78;36.03;;;1.20;99.90;;;;;;5014377;28;20089;-78
2023/12/31 07:31:08;;;;;;;;;;;1.20;99.90;;;;;;5008308;28;20086;-78
2023/12/31 07:33:38;;;;;;;83.00;30.88;;;1.30;99.90;;;;;;4994887;28;19918;-78
2023/12/31 07:36:13;;;;;;;92.95;32.78;;;1.30;99.90;;;;;;4997001;28;20051;-78
2023/12/31 07:38:56;;;;;;;92.22;32.30;;;1.40;99.90;;;;;;4975386;28;20069;-78
2023/12/31 07:41:30;;;;;;;81.80;31.65;;;1.30;99.90;;;;;;4964227;28;20046;-77
2023/12/31 07:44:06;;;;;;;86.18;33.20;;;1.30;99.90;;;;;;5013150;28;20137;-77
2023/12/31 07:46:38;;;;;;;90.72;33.45;;;0.10;99.90;;;;;;5029839;28;20054;-77
2023/12/31 07:49:11;;;;;;;85.80;32.28;;;1.50;99.90;;;;;;5012680;28;20049;-77
2023/12/31 07:51:44;;;;;;;78.22;27.55;;;1.50;99.90;;;;;;4996515;28;20084;-77
2023/12/31 07:54:28;;;;;;;66.13;26.42;;;1.60;99.90;;;;;;5013384;28;20041;-77
2023/12/31 07:57:00;;;;;;;61.63;23.60;;;1.60;99.90;;;;;;5024368;28;20085;-77
2023/12/31 07:59:30;;;;;;;57.83;23.27;;;3.30;99.90;;;;;;5014813;28;20057;-77
2023/12/31 08:02:03;;;;;;;56.33;23.25;;;1.80;99.90;;;;;;5021456;28;20465;-77
2023/12/31 08:04:33;;;;;;;56.08;22.45;;;1.90;99.90;;;;;;5047489;28;20060;-77
2023/12/31 08:07:05;;;;;;;57.10;23.85;;;2.00;99.90;;;;;;5027689;28;20053;-77
2023/12/31 08:09:39;;;;;;;61.95;23.73;;;2.10;99.90;;;;;;5024000;28;20042;-77
2023/12/31 08:12:16;;;;;;;67.30;23.35;;;2.20;99.90;;;;;;5003825;28;20097;-76
2023/12/31 08:14:52;;;;;;;53.33;21.20;;;2.30;99.90;;;;;;5033388;28;20038;-77
2023/12/31 08:17:24;;;;;;;55.50;23.10;;;2.80;99.90;;;;;;5017619;28;20102;-77
2023/12/31 08:19:59;;;;;;;50.30;20.15;;;2.50;99.90;;;;;;5002672;28;20046;-77
2023/12/31 08:22:34;;;;;;;53.50;22.08;;;2.60;99.90;;;;;;5010176;28;20042;-77
2023/12/31 08:25:05;;;;;;;;;;;2.90;99.90;;;;;;5050093;28;20041;-77
2023/12/31 08:27:39;;;;;;;46.90;20.25;;;2.80;99.90;;;;;;5041823;28;19925;-77
2023/12/31 08:30:13;;;;;;;55.30;21.00;;;2.70;99.90;;;;;;5035614;28;20076;-78
2023/12/31 08:32:48;;;;;;;50.95;21.65;;;3.00;99.90;;;;;;5036281;28;20054;-78
2023/12/31 08:35:26;;;;;;;53.50;23.48;;;2.80;99.90;;;;;;5052763;28;20072;-77
2023/12/31 08:37:56;;;;;;;54.92;22.95;;;2.90;99.90;;;;;;5019809;28;20049;-77
2023/12/31 08:40:26;;;;;;;49.85;21.35;;;3.00;99.90;;;;;;5043497;28;20056;-77
2023/12/31 08:43:01;;;;;;;46.92;19.40;;;3.10;99.90;;;;;;5024023;28;20149;-77
2023/12/31 08:45:33;;;;;;;51.55;21.92;;;3.10;99.90;;;;;;5034063;28;20054;-78
2023/12/31 08:48:17;;;;;;;47.50;18.50;;;3.20;99.90;;;;;;5034083;28;20053;-78
2023/12/31 08:50:50;;;;;;;50.33;19.42;;;3.40;99.90;;;;;;5046238;28;20073;-78
2023/12/31 08:53:25;;;;;;;46.77;18.90;;;3.30;99.90;;;;;;5029852;28;20121;-77
2023/12/31 08:55:56;;;;;;;55.00;22.88;;;2.50;99.90;;;;;;5032790;28;20037;-78
2023/12/31 08:58:31;;;;;;;46.20;20.20;;;3.50;99.90;;;;;;5044670;28;20076;-77
2023/12/31 09:01:04;;;;;;;48.87;21.23;;;4.90;99.90;;;;;;5023093;28;20046;-77
2023/12/31 09:03:37;;;;;;;43.38;17.67;;;3.50;99.90;;;;;;5044986;28;20322;-77
2023/12/31 09:06:17;;;;;;;49.42;19.27;;;3.70;99.90;;;;;;5039877;28;20113;-77
2023/12/31 09:08:49;;;;;;;43.85;19.17;;;3.60;99.90;;;;;;5017872;28;20058;-77
2023/12/31 09:11:24;;;;;;;51.40;20.42;;;3.70;99.90;;;;;;5016748;28;20074;-77
2023/12/31 09:13:59;;;;;;;48.00;19.42;;;3.70;99.90;;;;;;4988362;28;20086;-77
2023/12/31 09:16:30;;;;;;;45.75;20.15;;;3.80;99.90;;;;;;4965250;28;20047;-77
2023/12/31 09:19:00;;;;;;;58.42;22.92;;;3.80;99.90;;;;;;4979302;28;20122;-77
2023/12/31 09:21:38;;;;;;;59.80;23.90;;;3.80;99.90;;;;;;4975074;28;20071;-77
2023/12/31 09:24:11;;;;;;;49.72;21.05;;;3.60;99.90;;;;;;4961701;28;20058;-77
2023/12/31 09:26:42;;;;;;;47.23;19.43;;;3.90;99.90;;;;;;4973621;28;20059;-78
2023/12/31 09:29:14;;;;;;;49.90;21.27;;;4.00;99.90;;;;;;4961742;28;20123;-78
2023/12/31 09:31:45;;;;;;;49.38;21.88;;;4.90;99.90;;;;;;4979038;28;20058;-78
2023/12/31 09:34:15;;;;;;;53.33;23.17;;;4.10;99.90;;;;;;4984823;28;20830;-78
2023/12/31 09:36:45;;;;;;;50.78;21.35;;;4.20;99.90;;;;;;4955081;28;20288;-77
2023/12/31 09:39:16;;;;;;;55.58;24.83;;;4.20;99.90;;;;;;4953165;28;20137;-77
2023/12/31 09:41:49;;;;;;;58.70;24.88;;;5.20;99.90;;;;;;4974690;28;20046;-78
2023/12/31 09:44:21;;;;;;;55.38;23.85;;;4.30;99.90;;;;;;4975865;28;20065;-77
2023/12/31 09:47:06;;;;;;;55.22;25.40;;;4.40;99.90;;;;;;4979730;28;20078;-78
2023/12/31 09:49:59;;;;;;;56.83;23.45;;;4.40;99.90;;;;;;4955546;29;20068;-78
2023/12/31 09:52:33;;;;;;;57.65;24.17;;;4.30;99.90;;;;;;4929372;29;20071;-77
2023/12/31 09:55:08;;;;;;;48.47;22.02;;;4.30;99.90;;;;;;4909374;29;20059;-78
2023/12/31 09:57:42;;;;;;;47.63;21.85;;;4.40;99.90;;;;;;4915535;29;20052;-77
2023/12/31 10:00:15;;;;;;;47.83;20.88;;;4.40;99.90;;;;;;4922436;29;20066;-77
2023/12/31 10:02:46;;;;;;;48.95;23.20;;;4.50;99.90;;;;;;4922890;29;20075;-77
2023/12/31 10:05:16;;;;;;;50.60;22.85;;;4.60;99.90;;;;;;4945029;29;20060;-78
2023/12/31 10:07:49;;;;;;;52.75;23.25;;;4.70;99.90;;;;;;4936730;28;20062;-78
2023/12/31 10:10:19;;;;;;;;;;;3.70;99.90;;;;;;4976672;28;20042;-77
2023/12/31 10:12:52;;;;;;;37.63;17.67;;;4.90;99.90;;;;;;5007764;28;19997;-78
2023/12/31 10:15:22;;;;;;;;;;;4.90;99.90;;;;;;4966833;28;22041;-77
2023/12/31 10:17:59;;;;;;;29.33;11.73;;;5.00;99.90;;;;;;4987371;28;19951;-78
2023/12/31 10:20:32;;;;;;;42.35;16.40;;;5.30;99.90;;;;;;5038124;28;20045;-78
2023/12/31 10:23:03;;;;;;;45.20;20.58;;;5.00;99.90;;;;;;5022716;28;20071;-77
2023/12/31 10:25:34;;;;;;;32.10;16.00;;;4.60;99.90;;;;;;5023212;28;20061;-78
2023/12/31 10:28:06;;;;;;;41.22;18.45;;;5.20;99.90;;;;;;5037827;28;20049;-78
2023/12/31 10:30:39;;;;;;;36.10;17.83;;;5.10;99.90;;;;;;5015472;28;20043;-77
2023/12/31 10:33:13;;;;;;;39.75;18.10;;;5.40;99.90;;;;;;5039096;28;20045;-77
2023/12/31 10:35:43;;;;;;;37.20;17.17;;;5.20;99.90;;;;;;5019247;28;20808;-77
2023/12/31 10:38:12;;;;;;;41.58;19.20;;;5.30;99.90;;;;;;5032157;28;20037;-77
2023/12/31 10:40:43;;;;;;;34.15;16.73;;;5.50;99.90;;;;;;5031326;28;20121;-77
2023/12/31 10:43:16;;;;;;;32.50;16.23;;;5.50;99.90;;;;;;5026481;28;20042;-78
2023/12/31 10:45:48;;;;;;;30.77;13.10;;;6.00;99.90;;;;;;5033151;28;20045;-78
2023/12/31 10:48:23;;;;;;;33.60;16.38;;;6.90;99.90;;;;;;5019286;28;20057;-77
2023/12/31 10:50:54;;;;;;;38.78;17.65;;;5.80;99.90;;;;;;5014618;28;20060;-77
2023/12/31 10:53:26;;;;;;;38.67;18.52;;;5.90;99.90;;;;;;5024601;28;20049;-78
2023/12/31 10:55:58;;;;;;;40.47;19.58;;;6.10;99.90;;;;;;5019103;28;20049;-77
2023/12/31 10:58:35;;;;;;;42.08;18.27;;;5.80;99.90;;;;;;5011270;28;22593;-77
2023/12/31 11:01:05;;;;;;;40.63;19.33;;;5.80;99.90;;;;;;5007838;28;20053;-77
2023/12/31 11:03:36;;;;;;;42.97;21.00;;;5.80;99.90;;;;;;5021303;28;20056;-76
2023/12/31 11:06:08;;;;;;;42.72;20.55;;;5.60;99.90;;;;;;5012612;28;20045;-78
2023/12/31 11:08:38;;;;;;;39.22;19.25;;;5.80;99.90;;;;;;5020857;28;20095;-77
2023/12/31 11:11:08;;;;;;;39.47;19.05;;;5.50;99.90;;;;;;5012676;28;20740;-78
2023/12/31 11:13:43;;;;;;;28.83;15.20;;;5.40;99.90;;;;;;5014028;28;20755;-77
2023/12/31 11:16:26;;;;;;;29.85;14.98;;;5.20;99.90;;;;;;5031398;28;20148;-77
2023/12/31 11:19:22;;;;;;;32.60;15.82;;;5.30;99.90;;;;;;5008365;28;20056;-77
2023/12/31 11:22:02;;;;;;;33.30;16.98;;;5.40;99.90;;;;;;5015594;28;20063;-77
2023/12/31 11:24:31;;;;;;;33.05;17.38;;;5.30;99.90;;;;;;5024392;28;20085;-77
2023/12/31 11:27:07;;;;;;;33.50;15.18;;;5.30;99.90;;;;;;5008488;28;20046;-77
2023/12/31 11:29:36;;;;;;;38.55;19.17;;;5.40;99.90;;;;;;5024389;28;20060;-77
2023/12/31 11:32:09;;;;;;;80.35;27.00;;;5.40;99.90;;;;;;5016727;28;21972;-78
2023/12/31 11:34:39;;;;;;;66.32;23.70;;;5.60;99.90;;;;;;5009346;28;20077;-77
2023/12/31 11:37:09;;;;;;;87.95;31.52;;;5.30;99.90;;;;;;5024929;28;20057;-77
2023/12/31 11:39:38;;;;;;;42.20;20.17;;;5.60;99.90;;;;;;5024727;28;21208;-77
2023/12/31 11:42:10;;;;;;;43.40;21.27;;;6.40;99.90;;;;;;5011238;28;20088;-77
2023/12/31 11:44:43;;;;;;;39.10;18.85;;;5.50;99.90;;;;;;5026260;28;20155;-77
2023/12/31 11:47:21;;;;;;;38.40;18.83;;;5.60;99.90;;;;;;4997249;28;20045;-77
2023/12/31 11:49:53;;;;;;;39.28;18.83;;;5.70;99.90;;;;;;5029726;28;20159;-77
2023/12/31 11:52:46;;;;;;;29.88;15.00;;;5.50;99.90;;;;;;5038603;28;20048;-77
2023/12/31 11:55:17;;;;;;;29.35;14.27;;;5.50;99.90;;;;;;4966955;28;20057;-77
2023/12/31 11:57:48;;;;;;;33.47;16.80;;;5.60;99.90;;;;;;5003220;28;20049;-77
2023/12/31 12:00:17;;;;;;;37.28;18.33;;;5.60;99.90;;;;;;4994538;28;20132;-77
2023/12/31 12:02:51;;;;;;;40.22;18.73;;;5.40;99.90;;;;;;5000178;28;20068;-77
2023/12/31 12:05:20;;;;;;;40.08;18.95;;;5.40;99.90;;;;;;4986542;28;20721;-77
2023/12/31 12:07:48;;;;;;;39.00;18.38;;;5.50;99.90;;;;;;5003137;28;20084;-77
2023/12/31 12:10:17;;;;;;;43.40;18.75;;;5.50;99.90;;;;;;4988025;28;20052;-77
2023/12/31 12:12:57;;;;;;;45.25;20.50;;;5.50;99.90;;;;;;4998564;28;20125;-77
2023/12/31 12:15:35;;;;;;;33.65;15.88;;;5.70;99.90;;;;;;5006524;28;20057;-77
2023/12/31 12:18:19;;;;;;;31.63;16.08;;;5.60;99.90;;;;;;4988801;28;20033;-77
2023/12/31 12:20:48;;;;;;;39.90;18.35;;;5.90;99.90;;;;;;4989532;28;20050;-77
2023/12/31 12:23:21;;;;;;;29.73;16.13;;;5.20;99.90;;;;;;5019893;28;20060;-78
2023/12/31 12:25:51;;;;;;;36.20;16.35;;;5.30;99.90;;;;;;5003933;28;20054;-78
2023/12/31 12:28:21;;;;;;;36.40;16.73;;;5.50;99.90;;;;;;5017354;28;20144;-78
2023/12/31 12:30:51;;;;;;;37.55;18.25;;;5.50;99.90;;;;;;5014637;28;21313;-78
2023/12/31 12:33:24;;;;;;;39.15;19.77;;;6.70;99.90;;;;;;5033940;28;20112;-77
2023/12/31 12:35:53;;;;;;;33.85;16.05;;;5.40;99.90;;;;;;5029656;28;20175;-77
2023/12/31 12:38:22;;;;;;;40.25;18.83;;;5.70;99.90;;;;;;5009760;28;22443;-78
2023/12/31 12:41:00;;;;;;;44.40;19.95;;;5.40;99.90;;;;;;5030246;28;20040;-78
2023/12/31 12:43:31;;;;;;;42.85;19.35;;;5.50;99.90;;;;;;5036767;28;20055;-77
2023/12/31 12:46:06;;;;;;;43.70;21.40;;;5.40;99.90;;;;;;5011273;28;20053;-77
2023/12/31 12:48:40;;;;;;;42.17;18.70;;;5.50;99.90;;;;;;5029732;28;20049;-77
2023/12/31 12:51:09;;;;;;;40.33;17.48;;;5.50;99.90;;;;;;5019372;28;22122;-77
2023/12/31 12:53:40;;;;;;;45.63;21.38;;;5.40;99.90;;;;;;5015679;28;20056;-77
2023/12/31 12:56:09;;;;;;;36.00;17.60;;;5.30;99.90;;;;;;5012717;28;20068;-77